Flight Track Log - Related Links

Times and Time Zones

All times are in EDT time to prevent confusion due to time zone crossing. See the UAL395 flight status page for this flight to view local times or setup timezone preferences in your user account.

Time Position Orientation Groundspeed Altitude Reporting Facility
EDT Latitude Longitude Course Direction KTS MPH feet Rate Location/Type
Wed 10:53:06 PM 29.9542 -95.3439 270° West 153 176 1,100  Level Houston Center
Wed 10:53:51 PM 29.9317 -95.3808 235° Southwest 199 229 2,100 1,918 Climbing Houston Center
Wed 10:55:08 PM 29.8897 -95.4600 239° Southwest 239 275 5,000 2,913 Climbing Houston Center
Wed 10:56:09 PM 29.8736 -95.5511 258° West 286 329 8,800 3,049 Climbing Houston Center
Wed 10:57:10 PM 29.8586 -95.6450 260° West 297 342 11,200 1,820 Climbing Houston Center
Wed 10:58:00 PM 29.7667 -95.9877 270° West  Level FlightAware Approximate
Wed 10:58:11 PM 29.8408 -95.7625 260° West 369 425 12,500  Level Houston Center
Wed 10:59:12 PM 29.8211 -95.8914 260° West 406 467 14,900 2,262 Climbing Houston Center
Wed 11:00:13 PM 29.7997 -96.0386 261° West 419 482 17,100 1,918 Climbing Houston Center
Wed 11:01:14 PM 29.7800 -96.1764 261° West 434 499 18,800 1,672 Climbing Houston Center
Wed 11:02:15 PM 29.7892 -96.3192 274° West 449 517 20,500 1,770 Climbing Houston Center
Wed 11:03:16 PM 29.7997 -96.4647 275° West 457 526 22,400 1,967 Climbing Houston Center
Wed 11:04:17 PM 29.8097 -96.6075 275° West 453 521 24,500 1,623 Climbing Houston Center
Wed 11:05:18 PM 29.8208 -96.7517 275° West 455 524 25,700 -148 Climbing Houston Center
Wed 11:06:19 PM 29.8325 -96.8972 275° West 460 529 24,200 -1,918 Descending Houston Center
Wed 11:07:20 PM 29.8436 -97.0750 274° West 469 540 21,800 -2,262 Descending Houston Center
Wed 11:08:21 PM 29.8544 -97.2228 275° West 469 540 19,600 -1,967 Descending Houston Center
Wed 11:09:22 PM 29.8647 -97.3636 275° West 449 517 17,800 -1,540 Descending Houston Center
Wed 11:10:14 PM 29.8731 -97.4694 275° West 421 484 16,700 -1,438 Descending Houston Center
Wed 11:11:23 PM 29.8828 -97.6367 274° West 410 472 14,900 -1,523 Descending Houston Center
Wed 11:12:24 PM 29.8903 -97.7622 274° West 398 458 13,400 -1,279 Descending Houston Center
Wed 11:13:25 PM 29.8928 -97.8792 271° West 370 426 12,300 -1,230 Descending Houston Center
Wed 11:14:26 PM 29.8456 -97.9864 243° Southwest 345 397 10,900 -1,180 Descending Houston Center
Wed 11:15:27 PM 29.8078 -98.0744 244° Southwest 309 356 9,900 -1,279 Descending Houston Center
Wed 11:16:28 PM 29.7819 -98.1614 251° West 291 335 8,300 -1,587 Descending Houston Center
Wed 11:17:28 PM 29.7619 -98.2503 255° West 289 333 6,700 -1,240 Descending Houston Center
Wed 11:18:29 PM 29.7419 -98.3453 256° West 285 328 5,800 -1,180 Descending Houston Center
Wed 11:19:30 PM 29.7247 -98.4311 257° West 278 320 4,300 -1,385 Descending Houston Center
Wed 11:20:26 PM 29.6936 -98.4961 241° Southwest 259 298 3,100 -769 Descending Houston Center
Wed 11:21:27 PM 29.6456 -98.5453 222° Southwest 212 244 2,800 -295 Descending Houston Center
Wed 11:22:28 PM 29.6094 -98.5639 204° Southwest 129 148 2,500 -472 Descending Houston Center
Wed 11:23:34 PM 29.5786 -98.5322 138° Southeast 124 143 1,800 -619 Descending Houston Center
Wed 11:24:34 PM 29.5561 -98.5003 129° Southeast 129 148 1,200 -600 Descending Houston Center

Login

Don't have an account? Register now (free) for customized features, flight alerts, and more!